createdAt,value
2022-09-23T00:22:03.749Z,6.70
2022-09-23T06:52:01.635Z,8.00
2022-09-23T06:57:04.521Z,8.20
2022-09-23T07:02:07.355Z,8.30
2022-09-23T07:07:11.507Z,8.50
2022-09-23T07:12:18.242Z,8.60
2022-09-23T07:17:21.006Z,9.00
2022-09-23T07:22:24.405Z,9.20
2022-09-23T07:27:27.185Z,9.40
2022-09-23T07:32:36.329Z,9.60
2022-09-23T07:37:43.672Z,9.80
2022-09-23T07:42:47.881Z,9.90
2022-09-23T07:47:51.833Z,10.10
2022-09-23T07:52:54.485Z,10.20
2022-09-23T07:57:57.147Z,10.40
2022-09-23T08:03:06.017Z,10.70
2022-09-23T08:08:09.901Z,10.90
2022-09-23T08:13:12.611Z,11.20
2022-09-23T08:18:15.689Z,11.40
2022-09-23T12:07:20.046Z,18.00
2022-09-23T12:12:26.872Z,18.00
2022-09-23T12:17:29.813Z,18.10
2022-09-23T12:22:32.546Z,18.10
2022-09-23T12:27:36.653Z,18.00
2022-09-23T12:32:39.327Z,17.90
2022-09-23T12:37:43.532Z,18.00
2022-09-23T12:42:46.329Z,18.00
2022-09-23T12:47:49.052Z,18.10
2022-09-23T12:52:51.930Z,18.20
2022-09-23T12:57:58.327Z,18.30
2022-09-23T13:03:19.025Z,18.30
2022-09-23T13:08:21.702Z,18.50
2022-09-23T13:13:25.267Z,18.40
2022-09-23T13:18:27.982Z,18.30
2022-09-23T13:23:31.306Z,18.40
2022-09-23T13:28:34.463Z,18.50
2022-09-23T13:33:37.667Z,18.50
2022-09-23T13:38:40.847Z,18.50
2022-09-23T13:43:43.517Z,18.60
2022-09-23T13:48:46.214Z,18.70
2022-09-23T13:53:48.997Z,18.70
2022-09-23T13:58:52.313Z,18.70
2022-09-23T14:03:55.021Z,18.70
2022-09-23T15:30:04.058Z,17.50
2022-09-23T15:35:07.873Z,17.40
2022-09-23T15:40:12.595Z,17.30
2022-09-23T15:45:17.276Z,17.20
2022-09-23T15:50:20.782Z,17.10
2022-09-23T15:55:24.492Z,17.00
2022-09-23T16:00:27.868Z,17.00
2022-09-23T16:05:34.362Z,16.90
2022-09-23T16:10:37.109Z,16.80
2022-09-23T16:15:39.878Z,16.70
2022-09-23T16:20:43.115Z,16.50
2022-09-23T16:25:45.814Z,16.40
2022-09-23T16:30:48.549Z,16.30
2022-09-23T16:35:51.785Z,16.20
2022-09-23T16:40:56.068Z,16.00
2022-09-23T16:45:59.325Z,15.80
2022-09-23T16:51:02.452Z,15.70
2022-09-23T16:56:06.650Z,15.50
2022-09-23T17:01:27.110Z,15.40
2022-09-23T17:06:31.120Z,15.20
2022-09-23T17:11:35.049Z,15.00
2022-09-23T17:16:38.626Z,14.80
2022-09-23T17:21:42.161Z,14.70
2022-09-23T17:26:52.047Z,14.50
2022-09-23T17:31:56.232Z,14.40
2022-09-23T17:36:59.371Z,14.20
2022-09-23T17:42:03.753Z,14.10
2022-09-23T17:47:07.654Z,13.90
2022-09-23T17:52:10.397Z,13.70
2022-09-23T17:57:13.960Z,13.70
2022-09-23T18:02:16.710Z,13.80
2022-09-23T18:07:19.507Z,13.80
2022-09-23T18:12:22.345Z,13.60
2022-09-23T18:17:25.027Z,13.50
2022-09-23T18:22:27.780Z,13.30
2022-09-23T18:27:31.418Z,13.20
2022-09-23T18:32:34.267Z,13.00
2022-09-23T21:09:48.700Z,11.30
2022-09-23T21:14:51.687Z,11.30
2022-09-23T21:19:54.902Z,11.40
2022-09-23T21:25:27.034Z,11.60
2022-09-23T21:30:20.394Z,11.80
2022-09-23T21:35:23.641Z,11.70
